Time;durP1;ratioP1;P1;durP2;ratioP2;P2;SDS_P1;SDS_P2;PMS_P1;PMS_P2;Temp;Humidity;BMP_temperature;BMP_pressure;BME280_temperature;BME280_humidity;BME280_pressure;Samples;Min_cycle;Max_cycle;Signal;HPM_P1;HPM_P2
2022/03/18 00:01:21;;;;;;;15.85;9.10;;;;;;;7.65;94.35;101191.59;5075570;28;20186;-85
2022/03/18 00:03:48;;;;;;;14.23;8.55;;;;;;;7.52;94.17;101190.94;5076088;28;20206;-85
2022/03/18 00:06:17;;;;;;;14.57;8.68;;;;;;;7.86;91.34;101195.63;5076840;28;20199;-85
2022/03/18 00:08:46;;;;;;;10.68;7.28;;;;;;;7.51;91.85;101192.75;5076736;28;20193;-85
2022/03/18 00:11:14;;;;;;;11.75;8.23;;;;;;;7.45;93.27;101190.19;5075014;28;20205;-85
2022/03/18 00:13:40;;;;;;;12.25;8.40;;;;;;;7.66;91.12;101190.66;5075226;28;20217;-85
2022/03/18 00:16:07;;;;;;;11.15;7.05;;;;;;;7.58;91.42;101189.97;5075496;28;20205;-85
2022/03/18 00:18:33;;;;;;;12.10;7.35;;;;;;;7.49;90.85;101189.22;5075111;28;20209;-85
2022/03/18 00:21:00;;;;;;;8.38;5.30;;;;;;;7.22;91.85;101195.13;5075026;28;20190;-86
2022/03/18 00:23:26;;;;;;;11.63;6.32;;;;;;;7.17;92.66;101194.31;5075191;28;20200;-85
2022/03/18 00:25:54;;;;;;;11.40;5.82;;;;;;;7.30;91.74;101194.06;5074589;28;20193;-86
2022/03/18 00:28:21;;;;;;;12.68;5.03;;;;;;;7.31;91.14;101192.28;5074361;28;20190;-85
2022/03/18 00:30:49;;;;;;;9.32;5.10;;;;;;;7.37;91.01;101191.25;5074307;28;20204;-85
2022/03/18 00:33:15;;;;;;;8.82;5.68;;;;;;;7.25;91.37;101193.25;5075341;28;20203;-85
2022/03/18 00:35:42;;;;;;;7.72;5.43;;;;;;;7.16;91.14;101187.19;5074355;28;20211;-85
2022/03/18 00:38:08;;;;;;;5.75;4.43;;;;;;;7.32;90.67;101192.22;5074568;28;20627;-85
2022/03/18 00:40:35;;;;;;;12.23;5.13;;;;;;;7.21;90.93;101188.88;5073279;28;20280;-85
2022/03/18 00:43:03;;;;;;;9.65;5.10;;;;;;;7.41;89.75;101190.28;5073707;28;20193;-85
2022/03/18 00:45:30;;;;;;;8.18;6.20;;;;;;;7.41;89.08;101192.97;5074082;28;20198;-85
2022/03/18 00:53:25;;;;;;;12.07;4.40;;;;;;;7.28;88.98;101193.22;5074134;28;20192;-85
2022/03/18 00:55:52;;;;;;;9.48;4.82;;;;;;;7.42;88.38;101192.94;5073465;28;20684;-85
2022/03/18 00:58:20;;;;;;;9.55;4.20;;;;;;;7.38;88.54;101183.19;5074110;28;20291;-85
2022/03/18 01:00:46;;;;;;;13.07;4.40;;;;;;;7.40;88.58;101204.59;5073477;28;20211;-85
2022/03/18 01:03:13;;;;;;;10.80;4.43;;;;;;;7.53;87.89;101187.38;5074162;28;20189;-85
2022/03/18 01:05:40;;;;;;;9.43;4.05;;;;;;;7.54;87.62;101194.47;5074522;28;20200;-85
2022/03/18 01:08:06;;;;;;;8.70;4.25;;;;;;;7.61;87.19;101200.59;5074563;28;20523;-85
2022/03/18 01:10:34;;;;;;;9.00;5.00;;;;;;;7.40;88.27;101205.50;5073482;28;20658;-84
2022/03/18 01:13:00;;;;;;;6.68;4.45;;;;;;;7.60;87.43;101190.78;5073787;28;20205;-86
2022/03/18 01:15:28;;;;;;;6.10;4.15;;;;;;;7.55;87.45;101198.91;5073760;28;20654;-85
2022/03/18 01:17:55;;;;;;;4.88;3.70;;;;;;;7.48;87.51;101191.91;5073698;28;20185;-85
2022/03/18 01:20:22;;;;;;;7.97;4.50;;;;;;;7.52;88.01;101207.03;5075231;28;20534;-85
2022/03/18 01:22:49;;;;;;;8.60;4.95;;;;;;;7.42;88.30;101194.75;5073803;28;20199;-85
2022/03/18 01:25:15;;;;;;;6.25;4.30;;;;;;;7.40;89.27;101189.41;5074331;28;20185;-85
2022/03/18 01:27:42;;;;;;;8.63;4.40;;;;;;;7.42;89.00;101198.31;5073527;28;20197;-86
2022/03/18 01:30:10;;;;;;;6.68;4.30;;;;;;;7.26;90.16;101200.41;5073397;28;20546;-85
2022/03/18 01:32:38;;;;;;;9.70;5.32;;;;;;;7.40;89.24;101200.13;5075074;28;20201;-85
2022/03/18 01:35:05;;;;;;;8.85;4.53;;;;;;;7.34;89.74;101191.31;5077239;28;20195;-85
2022/03/18 01:37:32;;;;;;;9.07;4.32;;;;;;;7.37;89.74;101196.59;5077777;28;20201;-85
2022/03/18 01:39:58;;;;;;;10.15;4.32;;;;;;;7.28;90.48;101200.34;5077242;28;20198;-85
2022/03/18 01:42:25;;;;;;;11.52;4.63;;;;;;;7.38;90.64;101198.41;5078715;28;20548;-85
2022/03/18 01:44:52;;;;;;;9.02;4.78;;;;;;;7.36;89.94;101198.41;5066404;28;20600;-85
2022/03/18 01:47:19;;;;;;;5.38;4.15;;;;;;;7.16;91.69;101198.78;5077615;28;20204;-85
2022/03/18 01:49:47;;;;;;;11.50;5.40;;;;;;;7.35;90.70;101193.06;5077616;28;20318;-85
2022/03/18 01:52:14;;;;;;;4.28;3.50;;;;;;;7.29;91.49;101199.44;5077969;28;20196;-85
2022/03/18 01:54:47;;;;;;;10.18;4.60;;;;;;;7.43;89.96;101201.84;5077806;28;20192;-85
2022/03/18 01:57:17;;;;;;;10.05;5.05;;;;;;;7.31;90.63;101208.34;5077443;28;20257;-85
2022/03/18 01:59:43;;;;;;;12.98;5.68;;;;;;;7.24;92.01;101204.91;5077352;28;20246;-85
2022/03/18 02:02:10;;;;;;;9.60;5.05;;;;;;;7.15;92.15;101210.44;5076545;28;20195;-85
2022/03/18 02:04:37;;;;;;;9.40;4.82;;;;;;;7.19;92.50;101206.78;5076550;28;20519;-85
2022/03/18 02:07:05;;;;;;;9.60;5.38;;;;;;;7.29;91.30;101205.69;5076718;28;20185;-85
2022/03/18 02:09:32;;;;;;;7.35;4.50;;;;;;;7.26;92.27;101210.25;5076642;28;20603;-85
2022/03/18 02:12:00;;;;;;;9.65;4.90;;;;;;;7.24;92.04;101199.53;5075911;28;20202;-85
2022/03/18 02:14:34;;;;;;;7.25;5.03;;;;;;;7.27;91.94;101204.81;5076252;28;20189;-85
2022/03/18 02:17:02;;;;;;;8.07;4.82;;;;;;;7.20;92.53;101203.19;5076665;28;20486;-85
2022/03/18 02:19:28;;;;;;;10.77;5.47;;;;;;;7.15;93.14;101207.75;5076270;28;20193;-85
2022/03/18 02:21:57;;;;;;;7.50;4.40;;;;;;;7.14;93.35;101197.94;5076642;28;20188;-85
2022/03/18 02:24:25;;;;;;;10.77;4.97;;;;;;;7.14;93.26;101203.28;5076278;28;20569;-85
2022/03/18 02:26:53;;;;;;;9.05;4.85;;;;;;;6.99;94.81;101204.47;5075980;28;20181;-86
2022/03/18 02:29:21;;;;;;;9.80;5.85;;;;;;;7.15;93.58;101207.75;5076202;28;20878;-85
2022/03/18 02:31:48;;;;;;;8.45;5.03;;;;;;;7.13;93.95;101200.66;5083140;28;20188;-87
2022/03/18 02:34:15;;;;;;;8.23;4.72;;;;;;;7.05;94.09;101207.00;5081001;28;20215;-85
2022/03/18 02:36:42;;;;;;;8.10;6.03;;;;;;;7.13;94.17;101204.22;5076139;28;20216;-86
2022/03/18 02:39:08;;;;;;;14.70;5.22;;;;;;;7.09;94.26;101218.56;5076182;28;20505;-86
2022/03/18 02:41:36;;;;;;;7.30;4.63;;;;;;;7.13;94.22;101212.25;5075894;28;20196;-86
2022/03/18 02:44:03;;;;;;;10.70;4.53;;;;;;;7.12;94.22;101207.78;5076022;28;20189;-85
2022/03/18 02:46:32;;;;;;;13.90;7.05;;;;;;;7.20;93.37;101205.84;5075442;28;20189;-85
2022/03/18 02:49:00;;;;;;;9.75;4.75;;;;;;;7.19;93.58;101212.16;5075630;28;20247;-85
2022/03/18 02:51:27;;;;;;;13.95;6.00;;;;;;;7.16;94.38;101209.50;5075678;28;20189;-85
2022/03/18 02:53:53;;;;;;;6.75;5.20;;;;;;;7.02;94.93;101216.91;5076168;28;20191;-85
2022/03/18 02:56:20;;;;;;;7.35;4.43;;;;;;;7.07;95.36;101223.06;5075679;28;20299;-85
2022/03/18 02:58:48;;;;;;;9.60;4.65;;;;;;;7.22;93.76;101214.75;5076518;28;20185;-85
2022/03/18 03:01:15;;;;;;;11.05;4.75;;;;;;;7.15;94.76;101217.59;5075612;28;20185;-85
2022/03/18 03:03:41;;;;;;;9.70;4.88;;;;;;;7.15;94.35;101223.81;5076439;28;20200;-85
2022/03/18 03:08:52;;;;;;;15.35;7.03;;;;;;;7.19;94.28;101230.91;5076201;28;20188;-85
2022/03/18 03:11:21;;;;;;;9.65;4.82;;;;;;;7.14;94.27;101226.53;5075183;28;20299;-85
2022/03/18 03:13:49;;;;;;;9.18;4.75;;;;;;;7.16;94.91;101228.25;5075575;28;20185;-85
2022/03/18 03:16:16;;;;;;;5.43;4.30;;;;;;;7.09;95.47;101226.59;5075251;28;20209;-85
2022/03/18 03:18:42;;;;;;;10.18;4.95;;;;;;;7.12;95.16;101226.53;5076062;28;20545;-85
2022/03/18 03:21:09;;;;;;;11.10;6.03;;;;;;;6.98;95.93;101224.09;5074644;28;20207;-85
2022/03/18 03:23:36;;;;;;;7.82;5.00;;;;;;;6.92;96.86;101231.38;5076687;28;20530;-85
2022/03/18 03:26:03;;;;;;;8.45;5.28;;;;;;;7.04;96.44;101225.81;5075965;28;20647;-85
2022/03/18 03:28:30;;;;;;;10.23;5.32;;;;;;;7.02;96.70;101230.31;5076082;28;20194;-85
2022/03/18 03:30:58;;;;;;;11.27;4.93;;;;;;;7.01;96.49;101232.09;5075385;28;20188;-85
2022/03/18 03:33:26;;;;;;;14.63;4.90;;;;;;;6.82;97.99;101231.53;5077542;28;20192;-85
2022/03/18 03:35:53;;;;;;;7.35;4.90;;;;;;;6.67;99.66;101237.13;5074653;28;20206;-85
2022/03/18 03:38:21;;;;;;;9.27;5.60;;;;;;;6.78;99.61;101239.63;5075376;28;20196;-85
2022/03/18 03:40:48;;;;;;;10.02;5.00;;;;;;;6.62;100.00;101237.19;5075419;28;20188;-85
2022/03/18 03:43:15;;;;;;;9.25;5.63;;;;;;;6.75;100.00;101243.25;5075129;28;20192;-85
2022/03/18 03:45:41;;;;;;;9.65;5.03;;;;;;;6.65;100.00;101255.91;5074367;28;20219;-85
2022/03/18 03:48:10;;;;;;;6.35;5.28;;;;;;;6.59;100.00;101252.44;5074071;28;20188;-85
2022/03/18 03:50:40;;;;;;;11.23;5.60;;;;;;;6.60;100.00;101256.84;5074623;28;20221;-85
2022/03/18 03:53:07;;;;;;;9.73;5.10;;;;;;;6.69;100.00;101251.38;5074473;28;20268;-85
2022/03/18 03:55:38;;;;;;;7.13;4.80;;;;;;;6.70;100.00;101253.16;5074496;28;20630;-85
2022/03/18 03:58:05;;;;;;;14.75;9.23;;;;;;;6.77;100.00;101248.59;5074007;28;20196;-85
2022/03/18 04:00:32;;;;;;;10.70;5.38;;;;;;;6.76;100.00;101253.06;5075242;28;20197;-86
2022/03/18 04:02:59;;;;;;;8.60;5.32;;;;;;;6.74;100.00;101252.19;5074342;28;20358;-86
2022/03/18 04:05:26;;;;;;;9.60;5.25;;;;;;;6.67;100.00;101254.09;5074528;28;20195;-86
2022/03/18 04:07:53;;;;;;;9.52;5.57;;;;;;;6.59;100.00;101272.03;5074573;28;20197;-85
2022/03/18 04:10:20;;;;;;;10.23;4.22;;;;;;;6.53;100.00;101264.09;5074120;28;20199;-86
2022/03/18 04:12:47;;;;;;;13.13;6.10;;;;;;;6.63;100.00;101275.56;5074453;28;20247;-86
2022/03/18 04:15:13;;;;;;;8.77;5.10;;;;;;;6.55;100.00;101280.16;5073559;28;20196;-86
2022/03/18 04:17:41;;;;;;;12.32;5.75;;;;;;;6.55;100.00;101282.81;5074082;28;20220;-86
2022/03/18 04:20:10;;;;;;;13.00;5.75;;;;;;;6.52;100.00;101280.19;5074172;28;20197;-86
2022/03/18 04:22:39;;;;;;;9.57;5.60;;;;;;;6.71;100.00;101280.78;5074096;28;20623;-85
2022/03/18 04:25:07;;;;;;;12.23;5.88;;;;;;;6.66;100.00;101281.75;5073756;28;20185;-85
2022/03/18 04:27:34;;;;;;;7.13;4.93;;;;;;;6.63;100.00;101284.47;5074118;28;20200;-86
2022/03/18 04:30:01;;;;;;;8.27;5.45;;;;;;;6.47;100.00;101286.50;5073926;28;20530;-85
2022/03/18 04:32:28;;;;;;;8.40;5.20;;;;;;;6.56;100.00;101289.97;5074178;28;20280;-86
2022/03/18 04:34:55;;;;;;;8.20;4.90;;;;;;;6.49;100.00;101289.16;5074774;28;20200;-86
2022/03/18 04:37:21;;;;;;;12.63;5.93;;;;;;;6.58;100.00;101293.47;5074046;28;20211;-86
2022/03/18 04:39:49;;;;;;;10.02;5.22;;;;;;;6.64;100.00;101296.94;5074810;28;20189;-85
2022/03/18 04:42:16;;;;;;;8.52;5.32;;;;;;;6.81;100.00;101302.06;5074606;28;20192;-85
2022/03/18 04:44:42;;;;;;;7.13;4.43;;;;;;;6.70;100.00;101297.78;5075030;28;20188;-86
2022/03/18 04:47:09;;;;;;;9.00;5.15;;;;;;;6.61;100.00;101305.03;5074456;28;20182;-85
2022/03/18 04:49:35;;;;;;;9.45;5.00;;;;;;;6.82;100.00;101306.50;5073838;28;20228;-85
2022/03/18 04:52:02;;;;;;;11.57;5.93;;;;;;;6.88;99.36;101301.03;5073522;28;20541;-85
2022/03/18 04:54:29;;;;;;;11.48;6.10;;;;;;;6.71;99.79;101302.22;5073329;28;20189;-86
2022/03/18 04:59:41;;;;;;;11.30;5.95;;;;;;;6.68;100.00;101304.03;5072745;28;20195;-85
2022/03/18 05:02:10;;;;;;;13.45;6.43;;;;;;;6.68;100.00;101292.44;5074149;28;20185;-86
2022/03/18 05:04:37;;;;;;;10.55;5.55;;;;;;;6.65;100.00;101301.41;5074398;28;20192;-86
2022/03/18 05:07:04;;;;;;;9.63;5.65;;;;;;;6.74;100.00;101303.06;5073864;28;20838;-86
2022/03/18 05:09:30;;;;;;;9.02;5.57;;;;;;;6.67;100.00;101304.03;5074134;28;20201;-86
2022/03/18 05:11:58;;;;;;;11.80;5.22;;;;;;;6.72;100.00;101306.69;5073708;28;21093;-85
2022/03/18 05:14:26;;;;;;;15.20;5.43;;;;;;;6.77;100.00;101313.72;5073649;28;20193;-86
2022/03/18 05:16:52;;;;;;;9.48;5.28;;;;;;;6.72;100.00;101320.06;5073170;28;20220;-85
2022/03/18 05:19:19;;;;;;;12.30;6.35;;;;;;;6.71;100.00;101316.47;5073687;28;20692;-86
2022/03/18 05:21:46;;;;;;;14.05;5.95;;;;;;;6.54;100.00;101314.06;5074394;28;20529;-86
2022/03/18 05:24:12;;;;;;;10.48;6.40;;;;;;;6.71;100.00;101326.31;5074331;28;20196;-85
2022/03/18 05:26:40;;;;;;;12.25;5.22;;;;;;;6.70;100.00;101330.78;5074481;28;20834;-86
2022/03/18 05:29:08;;;;;;;13.50;5.25;;;;;;;6.70;100.00;101344.16;5073972;28;20184;-86
2022/03/18 05:31:36;;;;;;;17.77;5.28;;;;;;;6.75;100.00;101336.06;5055347;28;20288;-86
2022/03/18 05:34:02;;;;;;;10.18;5.65;;;;;;;6.64;100.00;101336.22;5074243;28;20192;-86
2022/03/18 05:36:29;;;;;;;16.67;5.57;;;;;;;6.58;100.00;101344.31;5074262;28;20200;-86
2022/03/18 05:38:55;;;;;;;15.88;6.20;;;;;;;6.61;100.00;101333.59;5074004;28;20204;-86
2022/03/18 05:41:22;;;;;;;9.75;5.65;;;;;;;6.73;100.00;101341.44;5074798;28;20188;-86
2022/03/18 05:43:48;;;;;;;13.77;6.15;;;;;;;6.59;100.00;101343.44;5073455;28;20185;-86
2022/03/18 05:46:16;;;;;;;16.08;5.35;;;;;;;6.59;100.00;101348.78;5073333;28;20208;-86
2022/03/18 05:48:43;;;;;;;9.30;5.25;;;;;;;6.49;100.00;101345.38;5072113;28;20232;-87
2022/03/18 05:51:09;;;;;;;12.40;5.75;;;;;;;6.61;100.00;101338.94;5072041;28;20207;-86
2022/03/18 05:53:36;;;;;;;14.60;6.15;;;;;;;6.65;100.00;101348.72;5072072;28;20200;-86
2022/03/18 05:58:48;;;;;;;13.80;5.25;;;;;;;6.59;100.00;101348.78;5074453;28;20646;-86
2022/03/18 06:01:16;;;;;;;10.55;6.68;;;;;;;6.59;100.00;101359.50;5074009;28;20496;-86
2022/03/18 06:03:43;;;;;;;9.45;5.30;;;;;;;6.58;100.00;101365.75;5073831;28;20207;-86
2022/03/18 06:06:10;;;;;;;12.73;6.25;;;;;;;6.55;100.00;101364.00;5073380;28;20193;-86
2022/03/18 06:14:04;;;;;;;9.90;6.55;;;;;;;6.68;100.00;101379.00;5072563;28;20306;-86
2022/03/18 06:16:32;;;;;;;15.25;6.95;;;;;;;6.70;100.00;101376.28;5072559;28;20208;-87
2022/03/18 06:18:58;;;;;;;13.60;6.32;;;;;;;6.72;100.00;101377.16;5076321;28;20187;-86
2022/03/18 06:21:25;;;;;;;11.43;6.75;;;;;;;6.71;100.00;101385.22;5078023;28;20625;-86
2022/03/18 06:23:52;;;;;;;13.65;5.78;;;;;;;6.85;100.00;101391.25;5077800;28;20208;-87
2022/03/18 06:26:18;;;;;;;6.80;4.90;;;;;;;6.89;100.00;101393.84;5078787;28;20307;-87
2022/03/18 06:28:45;;;;;;;9.73;5.60;;;;;;;6.87;100.00;101389.44;5077951;28;20185;-87
2022/03/18 06:31:12;;;;;;;8.30;5.60;;;;;;;6.98;99.64;101382.13;5078502;28;20647;-87
2022/03/18 06:33:43;;;;;;;12.20;6.18;;;;;;;6.97;99.27;101392.88;5063709;28;20284;-85
2022/03/18 06:36:10;;;;;;;15.35;5.65;;;;;;;7.01;98.33;101390.13;5055318;28;20256;-85
2022/03/18 06:38:37;;;;;;;14.95;6.28;;;;;;;6.88;99.18;101402.81;5055058;28;20312;-86
2022/03/18 06:41:03;;;;;;;21.90;6.57;;;;;;;7.03;99.53;101406.16;5066279;28;20220;-86
2022/03/18 06:43:30;;;;;;;10.25;5.65;;;;;;;7.08;97.31;101409.69;5077423;28;20678;-87
2022/03/18 06:45:57;;;;;;;10.82;5.47;;;;;;;7.00;97.82;101427.66;5076677;28;20279;-86
2022/03/18 06:48:24;;;;;;;10.23;7.22;;;;;;;7.13;97.13;101417.66;5075625;28;20191;-86
2022/03/18 06:50:52;;;;;;;10.30;6.03;;;;;;;7.10;96.88;101429.31;5076013;28;20280;-84
2022/03/18 06:53:19;;;;;;;12.98;6.82;;;;;;;7.29;94.15;101420.06;5075648;28;20195;-83
2022/03/18 06:55:46;;;;;;;9.10;6.13;;;;;;;7.27;95.21;101427.22;5074778;28;20223;-83
2022/03/18 06:58:12;;;;;;;11.13;5.35;;;;;;;7.25;95.51;101417.44;5076377;28;20231;-83
2022/03/18 07:00:39;;;;;;;10.13;6.07;;;;;;;7.26;94.25;101422.81;5081479;28;20185;-83
2022/03/18 07:03:06;;;;;;;11.70;6.35;;;;;;;7.38;93.75;101420.84;5077350;28;20193;-84
2022/03/18 07:05:33;;;;;;;11.75;5.90;;;;;;;7.36;93.23;101422.66;5075045;28;20200;-85
2022/03/18 07:08:00;;;;;;;12.45;5.78;;;;;;;7.47;92.66;101426.03;5074213;28;20193;-84
2022/03/18 07:10:27;;;;;;;7.57;5.63;;;;;;;7.49;90.64;101429.59;5075356;28;20719;-82
2022/03/18 07:12:54;;;;;;;10.02;5.57;;;;;;;7.51;90.97;101434.00;5074428;28;20185;-83
2022/03/18 07:15:20;;;;;;;12.90;6.22;;;;;;;7.44;90.82;101436.78;5074358;28;20652;-84
2022/03/18 07:17:55;;;;;;;13.35;5.72;;;;;;;7.26;92.35;101430.84;5070451;28;20223;-83
2022/03/18 07:20:23;;;;;;;10.70;6.47;;;;;;;7.51;89.56;101439.38;5076018;28;20184;-84
2022/03/18 07:23:01;;;;;;;12.30;6.20;;;;;;;7.67;89.85;101431.97;5074148;28;20192;-83
2022/03/18 07:25:28;;;;;;;10.23;5.90;;;;;;;7.96;86.89;101440.41;5074308;28;20189;-83
2022/03/18 07:27:55;;;;;;;11.10;5.88;;;;;;;7.85;87.23;101435.25;5075644;28;20246;-83
2022/03/18 07:30:28;;;;;;;10.70;5.20;;;;;;;7.98;87.17;101444.81;5075823;28;20188;-85
2022/03/18 07:32:54;;;;;;;14.07;5.88;;;;;;;7.91;86.25;101441.38;5074765;28;20189;-84
2022/03/18 07:35:21;;;;;;;13.05;5.40;;;;;;;7.89;86.19;101443.22;5073334;28;20210;-83
2022/03/18 07:37:50;;;;;;;10.48;5.57;;;;;;;7.97;85.51;101440.38;5077645;28;20219;-86
2022/03/18 07:40:18;;;;;;;8.02;5.07;;;;;;;8.14;84.99;101438.28;5073976;28;20209;-85
2022/03/18 07:42:46;;;;;;;8.98;5.13;;;;;;;8.04;84.35;101439.34;5072559;28;20199;-86
2022/03/18 07:45:31;;;;;;;12.70;5.82;;;;;;;8.07;83.81;101452.72;5073839;28;20278;-86
2022/03/18 07:48:00;;;;;;;16.58;7.28;;;;;;;8.21;83.47;101441.72;5072388;28;20201;-84
2022/03/18 07:50:29;;;;;;;12.25;5.78;;;;;;;8.39;81.98;101445.88;5072530;28;20233;-85
2022/03/18 07:52:57;;;;;;;6.05;4.22;;;;;;;8.29;80.53;101455.00;5073089;28;20586;-85
2022/03/18 07:55:27;;;;;;;13.82;5.63;;;;;;;8.20;81.63;101449.81;5073600;28;20186;-86
2022/03/18 07:57:55;;;;;;;11.95;6.75;;;;;;;8.24;82.40;101451.53;5070634;28;20210;-86
2022/03/18 08:00:23;;;;;;;14.95;7.78;;;;;;;8.40;82.07;101453.03;5071889;28;20189;-87
2022/03/18 08:02:51;;;;;;;9.65;5.72;;;;;;;8.55;78.97;101454.53;5073590;28;20203;-84
2022/03/18 08:05:18;;;;;;;15.18;5.57;;;;;;;8.54;79.15;101453.63;5070901;28;20192;-83
2022/03/18 08:07:46;;;;;;;16.25;6.00;;;;;;;8.58;79.10;101456.25;5074076;28;20215;-85
2022/03/18 08:10:14;;;;;;;12.30;5.28;;;;;;;8.27;81.74;101463.06;5073224;28;20216;-86
2022/03/18 08:12:43;;;;;;;10.77;5.93;;;;;;;8.33;81.80;101459.41;5073436;28;20196;-85
2022/03/18 08:15:12;;;;;;;8.57;4.65;;;;;;;8.54;79.53;101461.69;5073780;28;20202;-85
2022/03/18 08:17:39;;;;;;;13.70;5.82;;;;;;;8.30;81.21;101460.34;5073464;28;20221;-84
2022/03/18 08:20:07;;;;;;;10.85;5.63;;;;;;;8.34;81.32;101463.84;5077878;28;20296;-83
2022/03/18 08:22:33;;;;;;;11.98;5.35;;;;;;;8.24;81.67;101471.19;5078282;28;20193;-75
2022/03/18 08:25:02;;;;;;;8.73;5.45;;;;;;;8.45;79.87;101469.91;5073196;28;20279;-76
2022/03/18 08:27:28;;;;;;;11.95;5.00;;;;;;;8.52;79.76;101476.06;5071649;28;20660;-75
2022/03/18 08:29:59;;;;;;;9.43;5.40;;;;;;;8.62;79.95;101469.59;5071748;28;20196;-75
2022/03/18 08:32:27;;;;;;;11.93;5.50;;;;;;;8.68;77.87;101466.81;5072061;28;20236;-75
2022/03/18 08:34:53;;;;;;;12.93;6.60;;;;;;;8.46;80.91;101466.34;5070690;28;20193;-75
2022/03/18 08:37:56;;;;;;;9.20;5.35;;;;;;;8.35;80.16;101469.19;5068995;28;20201;-75
2022/03/18 08:40:08;;;;;;;8.30;5.90;;;;;;;8.43;81.24;101468.19;5071667;28;20644;-76
2022/03/18 08:42:35;;;;;;;10.00;5.60;;;;;;;8.63;80.34;101468.66;5072024;28;20661;-76
2022/03/18 08:45:05;;;;;;;13.13;6.18;;;;;;;8.83;78.32;101468.25;5071226;28;20198;-75
2022/03/18 08:47:32;;;;;;;9.10;6.03;;;;;;;8.73;79.17;101469.38;5070477;28;20292;-76
2022/03/18 08:49:58;;;;;;;10.35;5.93;;;;;;;8.58;79.49;101475.94;5055039;28;20226;-75
2022/03/18 08:52:25;;;;;;;13.75;6.40;;;;;;;8.64;79.43;101481.19;5058769;28;20186;-74
2022/03/18 08:54:52;;;;;;;10.85;5.57;;;;;;;8.68;79.91;101471.25;5071001;28;20213;-74
2022/03/18 08:57:18;;;;;;;11.18;6.25;;;;;;;8.74;78.71;101477.38;5077825;28;20183;-75
2022/03/18 08:59:45;;;;;;;13.45;6.05;;;;;;;8.94;78.33;101485.03;5076486;28;20191;-76
2022/03/18 09:02:13;;;;;;;12.07;5.93;;;;;;;9.08;78.20;101484.72;5070557;28;20193;-74
2022/03/18 09:04:40;;;;;;;10.65;6.15;;;;;;;8.92;78.20;101486.88;5070241;28;20615;-75
2022/03/18 09:07:06;;;;;;;14.07;6.35;;;;;;;8.72;79.48;101486.41;5071876;28;20628;-75
2022/03/18 09:09:33;;;;;;;10.57;5.53;;;;;;;8.92;78.39;101489.56;5071148;28;20197;-75
2022/03/18 09:12:00;;;;;;;8.95;6.03;;;;;;;8.92;79.54;101480.63;5071395;28;20278;-75
2022/03/18 09:14:27;;;;;;;11.23;5.43;;;;;;;9.12;78.49;101482.88;5070862;28;20277;-75
2022/03/18 09:16:53;;;;;;;9.70;5.80;;;;;;;8.96;79.38;101495.75;5073253;28;20297;-76
2022/03/18 09:19:22;;;;;;;12.05;6.60;;;;;;;8.83;80.76;101479.00;5071330;28;20217;-75
2022/03/18 09:21:49;;;;;;;10.15;6.30;;;;;;;9.09;80.17;101485.63;5070638;28;20192;-76
2022/03/18 09:24:16;;;;;;;10.98;6.25;;;;;;;9.37;79.09;101484.09;5065490;28;20218;-76
2022/03/18 09:26:42;;;;;;;13.73;7.30;;;;;;;9.76;76.57;101478.66;5070682;28;20215;-76
2022/03/18 09:29:09;;;;;;;12.60;7.18;;;;;;;9.87;74.54;101480.22;5070972;28;20653;-76
2022/03/18 09:31:36;;;;;;;16.02;6.25;;;;;;;9.95;74.63;101483.56;5070240;28;20309;-76
2022/03/18 09:34:03;;;;;;;10.00;7.10;;;;;;;9.60;77.01;101486.22;5070658;28;20286;-75
2022/03/18 09:36:31;;;;;;;13.43;6.70;;;;;;;9.93;75.91;101485.44;5072613;28;20191;-76
2022/03/18 09:38:58;;;;;;;12.35;7.30;;;;;;;9.88;76.30;101477.50;5072255;28;20230;-75
2022/03/18 09:41:25;;;;;;;14.50;8.23;;;;;;;10.23;74.48;101475.69;5071816;28;20270;-75
2022/03/18 09:43:52;;;;;;;10.90;7.75;;;;;;;10.23;74.38;101481.94;5074781;28;20662;-75
2022/03/18 09:46:19;;;;;;;14.27;8.68;;;;;;;10.14;74.78;101465.16;5072959;28;20533;-75
2022/03/18 09:48:45;;;;;;;11.77;7.32;;;;;;;10.43;73.21;101485.94;5070311;28;20228;-77
2022/03/18 09:51:13;;;;;;;12.60;7.40;;;;;;;10.51;72.49;101483.03;5059891;28;20200;-76
2022/03/18 09:53:41;;;;;;;14.85;8.20;;;;;;;10.50;72.84;101479.47;5054810;28;20197;-76
2022/03/18 09:56:08;;;;;;;12.07;7.85;;;;;;;10.54;71.47;101477.56;5076341;28;20213;-76
2022/03/18 09:58:35;;;;;;;13.20;8.23;;;;;;;10.50;72.29;101476.75;5075927;28;20223;-77
2022/03/18 10:01:01;;;;;;;10.73;7.55;;;;;;;10.93;70.62;101470.13;5075227;28;20192;-77
2022/03/18 10:03:37;;;;;;;13.90;7.63;;;;;;;11.42;68.75;101474.03;5075940;28;20185;-77
2022/03/18 10:06:04;;;;;;;11.88;7.72;;;;;;;11.53;67.13;101472.78;5077962;28;20198;-76
2022/03/18 10:08:51;;;;;;;12.85;9.10;;;;;;;11.71;66.60;101482.09;5074799;28;20185;-77
2022/03/18 10:11:19;;;;;;;12.40;7.13;;;;;;;11.34;68.04;101478.75;5074324;28;20539;-76
2022/03/18 10:13:57;;;;;;;13.60;8.73;;;;;;;11.25;67.94;101477.22;5077887;28;20200;-76
2022/03/18 10:16:32;;;;;;;16.52;8.82;;;;;;;11.32;68.48;101483.31;5076327;28;20271;-76
2022/03/18 10:18:59;;;;;;;12.75;8.45;;;;;;;11.32;68.63;101486.00;5074812;28;20200;-76
2022/03/18 10:21:25;;;;;;;13.85;8.80;;;;;;;11.72;67.25;101473.09;5074798;28;20510;-77
2022/03/18 10:24:06;;;;;;;11.68;8.48;;;;;;;11.40;68.13;101467.78;5074533;28;20185;-76
2022/03/18 10:26:35;;;;;;;16.23;10.32;;;;;;;11.33;70.47;101466.22;5075017;28;20603;-76
2022/03/18 10:29:02;;;;;;;15.13;8.07;;;;;;;11.55;68.80;101465.53;5074654;28;20603;-77
2022/03/18 10:31:28;;;;;;;20.73;8.93;;;;;;;11.85;66.58;101464.53;5074371;28;20239;-76
2022/03/18 10:39:30;;;;;;;15.25;9.52;;;;;;;12.24;65.75;101455.13;5074463;28;20368;-76
2022/03/18 10:41:57;;;;;;;21.42;13.60;;;;;;;12.54;70.93;101455.81;5075020;28;20288;-76
2022/03/18 10:44:24;;;;;;;17.00;11.57;;;;;;;12.60;65.01;101442.09;5074526;28;20230;-76
2022/03/18 10:46:53;;;;;;;20.60;10.70;;;;;;;12.86;65.61;101448.31;5073845;28;20606;-76
2022/03/18 10:49:21;;;;;;;16.23;10.00;;;;;;;12.49;64.32;101450.59;5073668;28;20282;-76
2022/03/18 10:51:48;;;;;;;17.73;10.90;;;;;;;12.31;64.92;101464.78;5058891;28;20185;-76
2022/03/18 10:54:23;;;;;;;18.50;10.48;;;;;;;12.45;65.63;101448.06;5054425;28;20201;-76
2022/03/18 10:57:03;;;;;;;13.55;9.25;;;;;;;12.45;63.78;101443.53;5058085;28;20201;-78
2022/03/18 10:59:32;;;;;;;20.60;13.65;;;;;;;12.78;68.05;101453.16;5074108;28;20299;-76
2022/03/18 11:02:00;;;;;;;18.13;12.00;;;;;;;13.12;64.62;101453.63;5073378;28;20228;-76
2022/03/18 11:04:28;;;;;;;16.10;10.13;;;;;;;13.10;62.98;101457.31;5072781;28;20528;-75
2022/03/18 11:12:32;;;;;;;16.65;10.63;;;;;;;13.39;66.13;101448.09;5064461;28;20193;-76
2022/03/18 11:14:59;;;;;;;20.08;13.85;;;;;;;13.20;65.42;101456.00;5073874;28;20210;-77
2022/03/18 11:17:26;;;;;;;14.43;9.70;;;;;;;13.11;62.89;101461.78;5073526;28;20221;-76
2022/03/18 11:19:53;;;;;;;12.68;9.77;;;;;;;13.35;60.07;101459.97;5072283;28;20565;-77
2022/03/18 11:22:21;;;;;;;16.35;10.27;;;;;;;13.63;59.54;101472.38;5073928;28;20229;-76
2022/03/18 11:24:49;;;;;;;16.55;9.90;;;;;;;13.67;58.81;101464.06;5074358;28;20257;-76
2022/03/18 11:27:17;;;;;;;19.33;10.73;;;;;;;13.36;60.99;101469.84;5074067;28;20210;-77
2022/03/18 11:29:45;;;;;;;16.17;9.82;;;;;;;12.80;63.02;101464.78;5073827;28;20581;-77
2022/03/18 11:32:20;;;;;;;11.27;7.97;;;;;;;12.45;61.51;101466.97;5073945;28;20223;-74
2022/03/18 11:34:47;;;;;;;12.35;8.35;;;;;;;12.96;59.90;101467.78;5073597;28;20600;-74
2022/03/18 11:37:15;;;;;;;14.00;9.00;;;;;;;13.07;59.42;101466.44;5072914;28;20292;-74
2022/03/18 11:39:42;;;;;;;14.68;7.70;;;;;;;13.22;57.71;101469.47;5071771;28;20304;-75
2022/03/18 11:42:10;;;;;;;13.40;8.00;;;;;;;13.55;57.34;101465.47;5074157;28;20509;-73
2022/03/18 11:44:55;;;;;;;14.40;8.40;;;;;;;13.55;56.95;101461.88;5072050;28;20191;-73
2022/03/18 11:47:48;;;;;;;15.25;9.45;;;;;;;13.33;56.64;101475.38;5073406;28;20595;-73
2022/03/18 11:50:48;;;;;;;22.00;10.55;;;;;;;12.99;58.36;101460.44;5070205;28;20965;-74
2022/03/18 11:53:31;;;;;;;15.00;9.68;;;;;;;13.41;57.75;101454.31;5052858;28;20661;-74
2022/03/18 11:56:09;;;;;;;15.27;9.77;;;;;;;13.22;57.28;101464.94;5052218;28;20233;-74
2022/03/18 11:58:36;;;;;;;13.90;9.35;;;;;;;13.30;56.78;101460.16;5070383;28;20574;-75